Time;durP1;ratioP1;P1;durP2;ratioP2;P2;SDS_P1;SDS_P2;PMS_P1;PMS_P2;Temp;Humidity;BMP_temperature;BMP_pressure;BME280_temperature;BME280_humidity;BME280_pressure;Samples;Min_cycle;Max_cycle;Signal;HPM_P1;HPM_P2
2022/11/03 00:00:56;;;;;;;9.65;2.80;;;9.50;99.90;;;;;;5080529;28;20036;-74
2022/11/03 00:03:22;;;;;;;7.85;2.72;;;9.50;99.90;;;;;;5096803;28;20038;-73
2022/11/03 00:06:06;;;;;;;6.80;2.70;;;9.50;99.90;;;;;;5072641;28;20107;-75
2022/11/03 00:08:37;;;;;;;12.23;2.70;;;9.50;99.90;;;;;;5082086;28;20402;-73
2022/11/03 00:11:10;;;;;;;11.02;3.03;;;9.50;99.90;;;;;;5093615;28;20114;-73
2022/11/03 00:13:37;;;;;;;13.38;2.72;;;9.60;99.90;;;;;;5096031;28;20031;-73
2022/11/03 00:16:03;;;;;;;9.15;2.90;;;9.50;99.90;;;;;;5099874;28;20034;-74
2022/11/03 00:18:29;;;;;;;8.40;2.30;;;9.50;99.90;;;;;;5101693;27;20510;-74
2022/11/03 00:21:09;;;;;;;7.70;2.47;;;9.50;99.90;;;;;;5085286;28;20028;-74
2022/11/03 00:23:37;;;;;;;11.75;2.95;;;9.50;99.90;;;;;;5097499;28;20027;-73
2022/11/03 00:26:15;;;;;;;11.60;2.90;;;9.50;99.90;;;;;;5095826;28;20473;-73
2022/11/03 00:28:42;;;;;;;8.93;2.50;;;9.40;99.90;;;;;;5077866;28;20483;-74
2022/11/03 00:31:22;;;;;;;7.97;2.92;;;9.40;99.90;;;;;;5098349;28;20385;-74
2022/11/03 00:33:49;;;;;;;8.38;3.00;;;9.40;99.90;;;;;;5094535;28;20059;-73
2022/11/03 00:36:17;;;;;;;12.75;2.60;;;9.40;99.90;;;;;;5095069;28;20031;-74
2022/11/03 00:38:43;;;;;;;14.40;2.85;;;9.40;99.90;;;;;;5098053;28;20047;-74
2022/11/03 00:41:11;;;;;;;9.50;2.72;;;9.50;99.90;;;;;;5099767;28;20081;-73
2022/11/03 00:43:37;;;;;;;10.13;3.05;;;9.50;99.90;;;;;;5090166;28;20036;-73
2022/11/03 00:46:04;;;;;;;9.20;2.65;;;9.50;99.90;;;;;;5102628;27;20034;-74
2022/11/03 00:48:34;;;;;;;7.32;2.60;;;9.40;99.90;;;;;;5099292;28;20027;-74
2022/11/03 00:51:00;;;;;;;12.23;3.00;;;9.40;99.90;;;;;;5102257;28;20106;-75
2022/11/03 00:53:26;;;;;;;9.13;2.50;;;9.40;99.90;;;;;;5080886;28;20509;-74
2022/11/03 00:55:52;;;;;;;12.05;3.05;;;9.40;99.90;;;;;;5099054;28;20503;-74
2022/11/03 00:58:18;;;;;;;8.35;2.63;;;9.40;99.90;;;;;;5079793;28;20111;-74
2022/11/03 01:00:43;;;;;;;5.93;2.47;;;9.40;99.90;;;;;;5097569;28;20034;-74
2022/11/03 01:03:09;;;;;;;7.13;2.20;;;9.40;99.90;;;;;;5088217;28;20042;-74
2022/11/03 01:08:25;;;;;;;9.20;3.15;;;9.40;99.90;;;;;;5096291;28;20079;-73
2022/11/03 01:13:34;;;;;;;9.43;2.40;;;9.40;99.90;;;;;;5097261;28;20023;-72
2022/11/03 01:16:00;;;;;;;10.30;2.75;;;9.40;99.90;;;;;;5101014;28;20023;-73
2022/11/03 01:18:26;;;;;;;8.50;2.67;;;9.40;99.90;;;;;;5107605;28;20024;-73
2022/11/03 01:20:55;;;;;;;8.43;2.60;;;9.40;99.90;;;;;;5099703;28;20035;-72
2022/11/03 01:23:22;;;;;;;7.55;2.58;;;9.30;99.90;;;;;;5103763;28;20084;-72
2022/11/03 01:25:48;;;;;;;8.65;2.85;;;9.30;99.90;;;;;;5105865;28;20518;-75
2022/11/03 01:28:14;;;;;;;8.73;3.10;;;9.30;99.90;;;;;;5092830;28;20122;-73
2022/11/03 01:30:39;;;;;;;7.95;3.22;;;9.30;99.90;;;;;;5084251;28;20031;-73
2022/11/03 01:33:05;;;;;;;6.78;2.13;;;9.30;99.90;;;;;;5087940;28;20026;-74
2022/11/03 01:35:30;;;;;;;11.27;2.78;;;9.30;99.90;;;;;;5096516;28;20058;-74
2022/11/03 01:37:56;;;;;;;13.07;2.70;;;9.30;99.90;;;;;;5103474;28;20028;-75
2022/11/03 01:40:22;;;;;;;7.03;2.63;;;9.30;99.90;;;;;;5100026;28;20032;-72
2022/11/03 01:42:48;;;;;;;9.40;2.53;;;9.30;99.90;;;;;;5104347;27;20031;-73
2022/11/03 01:45:14;;;;;;;7.57;2.65;;;9.30;99.90;;;;;;5084358;28;20073;-72
2022/11/03 01:47:40;;;;;;;8.57;2.53;;;9.30;99.90;;;;;;5101606;28;20077;-72
2022/11/03 01:50:17;;;;;;;11.23;2.67;;;9.30;99.90;;;;;;5103874;28;20660;-73
2022/11/03 01:52:47;;;;;;;10.60;2.80;;;9.30;99.90;;;;;;5105885;28;20160;-74
2022/11/03 01:55:18;;;;;;;8.25;2.03;;;9.30;99.90;;;;;;5088146;28;20024;-74
2022/11/03 01:57:46;;;;;;;10.93;2.83;;;9.30;99.90;;;;;;5102256;28;20031;-73
2022/11/03 02:00:12;;;;;;;7.20;2.22;;;9.30;99.90;;;;;;5105204;28;20036;-73
2022/11/03 02:02:39;;;;;;;7.65;2.80;;;9.30;99.90;;;;;;5092017;28;21785;-73
2022/11/03 02:05:09;;;;;;;9.13;2.95;;;9.30;99.90;;;;;;5086492;28;20513;-73
2022/11/03 02:07:43;;;;;;;7.13;2.47;;;9.30;99.90;;;;;;5094521;28;20031;-74
2022/11/03 02:10:09;;;;;;;8.63;2.83;;;9.30;99.90;;;;;;5058790;28;20031;-73
2022/11/03 02:12:36;;;;;;;9.43;2.15;;;9.20;99.90;;;;;;5087240;28;20024;-74
2022/11/03 02:15:06;;;;;;;8.20;2.47;;;9.20;99.90;;;;;;5099517;28;20032;-74
2022/11/03 02:17:34;;;;;;;7.63;2.40;;;9.20;99.90;;;;;;5097923;28;20031;-73
2022/11/03 02:20:14;;;;;;;8.85;2.78;;;9.20;99.90;;;;;;5107669;28;20028;-73
2022/11/03 02:23:10;;;;;;;7.60;2.10;;;9.20;99.90;;;;;;5099174;27;20023;-73
2022/11/03 02:25:39;;;;;;;5.50;2.15;;;9.20;99.90;;;;;;5106911;28;20027;-74
2022/11/03 02:28:05;;;;;;;6.65;1.90;;;9.20;99.90;;;;;;5092305;28;20032;-73
2022/11/03 02:31:03;;;;;;;6.35;2.25;;;9.20;99.90;;;;;;5070710;28;20043;-74
2022/11/03 02:33:42;;;;;;;8.45;2.72;;;9.20;99.90;;;;;;5080063;28;20047;-72
2022/11/03 02:36:27;;;;;;;6.80;2.47;;;9.20;99.90;;;;;;5101597;27;20031;-75
2022/11/03 02:38:59;;;;;;;7.68;1.92;;;9.20;99.90;;;;;;5101493;28;20028;-74
2022/11/03 02:41:27;;;;;;;8.57;2.70;;;9.20;99.90;;;;;;5093291;28;20441;-75
2022/11/03 02:43:55;;;;;;;17.42;2.95;;;9.20;99.90;;;;;;5100233;28;20773;-74
2022/11/03 02:46:24;;;;;;;8.38;2.38;;;9.30;99.90;;;;;;5100480;28;20118;-73
2022/11/03 02:48:51;;;;;;;6.65;2.10;;;9.30;99.90;;;;;;5081181;28;20019;-74
2022/11/03 02:51:16;;;;;;;8.35;2.15;;;9.30;99.90;;;;;;5097257;28;20058;-74
2022/11/03 02:53:50;;;;;;;9.32;2.40;;;9.30;99.90;;;;;;5100593;28;20059;-75
2022/11/03 02:56:21;;;;;;;8.60;3.05;;;9.30;99.90;;;;;;5083258;28;20066;-74
2022/11/03 02:59:00;;;;;;;10.55;2.42;;;9.30;99.90;;;;;;5097481;28;20530;-74
2022/11/03 03:01:47;;;;;;;12.63;2.20;;;9.30;99.90;;;;;;5100126;28;20028;-73
2022/11/03 03:04:19;;;;;;;10.25;2.20;;;9.30;99.90;;;;;;5082062;28;20563;-74
2022/11/03 03:06:50;;;;;;;13.07;3.05;;;9.30;99.90;;;;;;5097947;28;20403;-74
2022/11/03 03:09:28;;;;;;;6.45;2.22;;;9.30;99.90;;;;;;5083990;28;20019;-75
2022/11/03 03:11:57;;;;;;;9.55;2.35;;;9.30;99.90;;;;;;5104319;28;20035;-73
2022/11/03 03:14:31;;;;;;;8.10;2.20;;;9.30;99.90;;;;;;5100778;28;20019;-74
2022/11/03 03:17:14;;;;;;;6.55;2.17;;;9.30;99.90;;;;;;5098053;28;20032;-74
2022/11/03 03:20:03;;;;;;;10.57;2.72;;;9.30;99.90;;;;;;5069907;28;20060;-73
2022/11/03 03:22:50;;;;;;;5.63;1.88;;;9.20;99.90;;;;;;5103153;28;20035;-74
2022/11/03 03:25:24;;;;;;;9.68;2.05;;;9.20;99.90;;;;;;5097536;28;20437;-74
2022/11/03 03:27:56;;;;;;;5.45;1.48;;;9.20;99.90;;;;;;5085336;28;20050;-74
2022/11/03 03:30:21;;;;;;;9.48;2.10;;;9.20;99.90;;;;;;5099345;28;20099;-74
2022/11/03 03:32:50;;;;;;;11.52;2.65;;;9.20;99.90;;;;;;5082766;28;20099;-74
2022/11/03 03:35:23;;;;;;;9.05;2.22;;;9.10;99.90;;;;;;5100471;28;20023;-74
2022/11/03 03:37:53;;;;;;;9.15;1.90;;;9.10;99.90;;;;;;5084339;28;20035;-74
2022/11/03 03:40:27;;;;;;;16.38;2.42;;;9.20;99.90;;;;;;5101976;28;20480;-74
2022/11/03 03:42:53;;;;;;;8.90;2.35;;;9.20;99.90;;;;;;5088190;28;20109;-74
2022/11/03 03:45:19;;;;;;;6.13;1.88;;;9.10;99.90;;;;;;5085810;28;20024;-74
2022/11/03 03:47:47;;;;;;;6.20;2.08;;;9.10;99.90;;;;;;5090640;28;20027;-74
2022/11/03 03:50:13;;;;;;;11.32;2.10;;;9.10;99.90;;;;;;5102625;28;20066;-74
2022/11/03 03:52:38;;;;;;;8.75;2.40;;;9.10;99.90;;;;;;5092095;28;20027;-74
2022/11/03 03:55:08;;;;;;;7.88;1.92;;;9.10;99.90;;;;;;5087454;28;20172;-74
2022/11/03 03:57:34;;;;;;;8.98;2.30;;;9.10;99.90;;;;;;5104779;27;20031;-73
2022/11/03 04:00:00;;;;;;;5.80;1.60;;;9.10;99.90;;;;;;5088884;28;20024;-73
2022/11/03 04:02:25;;;;;;;13.80;3.03;;;9.10;99.90;;;;;;5096844;27;20043;-73
2022/11/03 04:04:51;;;;;;;7.72;1.92;;;9.10;99.90;;;;;;5097718;28;20416;-73
2022/11/03 04:10:01;;;;;;;12.45;2.20;;;9.00;99.90;;;;;;5102209;28;20495;-74
2022/11/03 04:23:27;;;;;;;6.00;1.85;;;9.00;99.90;;;;;;5100649;28;20591;-73
2022/11/03 04:25:58;;;;;;;9.63;1.83;;;9.00;99.90;;;;;;5087318;28;20138;-74
2022/11/03 04:28:26;;;;;;;7.72;1.63;;;9.00;99.90;;;;;;5100007;28;20099;-75
2022/11/03 04:30:56;;;;;;;5.47;1.70;;;9.00;99.90;;;;;;5057127;28;20043;-73
2022/11/03 04:33:22;;;;;;;13.75;2.03;;;9.00;99.90;;;;;;5080022;28;20032;-73
2022/11/03 04:35:48;;;;;;;12.85;1.77;;;9.00;99.90;;;;;;5085312;28;20024;-73
2022/11/03 04:38:14;;;;;;;11.30;2.35;;;9.00;99.90;;;;;;5100534;28;20544;-74
2022/11/03 04:40:45;;;;;;;8.88;2.08;;;9.00;99.90;;;;;;5070915;28;20062;-74
2022/11/03 04:43:16;;;;;;;7.57;2.00;;;9.00;99.90;;;;;;5084786;28;20495;-74
2022/11/03 04:45:44;;;;;;;5.65;1.73;;;9.00;99.90;;;;;;5102760;28;20032;-74
2022/11/03 04:48:17;;;;;;;6.78;1.52;;;9.00;99.90;;;;;;5083152;28;20641;-74
2022/11/03 04:50:47;;;;;;;8.50;1.85;;;9.00;99.90;;;;;;5089767;28;20177;-74
2022/11/03 04:53:16;;;;;;;7.45;1.70;;;8.90;99.90;;;;;;5098715;28;20098;-73
2022/11/03 04:55:43;;;;;;;9.52;1.73;;;8.90;99.90;;;;;;5094654;28;20028;-73
2022/11/03 04:58:20;;;;;;;5.85;1.83;;;8.90;99.90;;;;;;5086810;28;20031;-73
2022/11/03 05:00:48;;;;;;;10.07;2.28;;;9.00;99.90;;;;;;5091331;28;20597;-74
2022/11/03 05:03:20;;;;;;;10.10;2.00;;;8.90;99.90;;;;;;5077077;28;20031;-73
2022/11/03 05:05:46;;;;;;;8.48;2.17;;;8.90;99.90;;;;;;5093225;28;20487;-73
2022/11/03 05:08:12;;;;;;;11.98;2.35;;;8.90;99.90;;;;;;5080997;28;20031;-74
2022/11/03 05:10:38;;;;;;;9.55;2.30;;;8.90;99.90;;;;;;5086835;28;20036;-74
2022/11/03 05:13:14;;;;;;;11.23;2.28;;;9.00;99.90;;;;;;5085233;28;20559;-74
2022/11/03 05:15:42;;;;;;;7.88;1.92;;;8.90;99.90;;;;;;5095782;28;20031;-73
2022/11/03 05:18:28;;;;;;;9.57;2.03;;;9.00;99.90;;;;;;5080015;28;20068;-74
2022/11/03 05:21:01;;;;;;;7.72;1.90;;;9.00;99.90;;;;;;5092364;28;20054;-73
2022/11/03 05:23:35;;;;;;;9.00;1.95;;;8.90;99.90;;;;;;5079831;28;20111;-74
2022/11/03 05:26:02;;;;;;;7.18;1.98;;;8.90;99.90;;;;;;5095816;28;20061;-74
2022/11/03 05:28:51;;;;;;;12.07;2.40;;;8.90;99.90;;;;;;5088904;28;20012;-75
2022/11/03 05:31:27;;;;;;;9.52;2.67;;;8.90;99.90;;;;;;5097088;28;20046;-74
2022/11/03 05:33:57;;;;;;;10.38;2.70;;;8.90;99.90;;;;;;5088790;28;20039;-73
2022/11/03 05:36:24;;;;;;;15.50;3.28;;;8.90;99.90;;;;;;5098791;28;20101;-75
2022/11/03 05:38:57;;;;;;;10.68;2.20;;;9.00;99.90;;;;;;5084348;28;20024;-74
2022/11/03 05:41:29;;;;;;;10.32;2.78;;;8.90;99.90;;;;;;5102153;28;20085;-75
2022/11/03 05:44:35;;;;;;;11.65;2.35;;;8.90;99.90;;;;;;5098525;28;20061;-74
2022/11/03 05:47:07;;;;;;;11.38;2.95;;;8.90;99.90;;;;;;5079568;28;20523;-73
2022/11/03 05:49:34;;;;;;;7.97;2.17;;;8.90;99.90;;;;;;5095516;28;20479;-73
2022/11/03 05:52:00;;;;;;;9.77;2.53;;;8.90;99.90;;;;;;5072449;28;20034;-74
2022/11/03 05:54:31;;;;;;;13.02;2.75;;;8.90;99.90;;;;;;5089781;28;20035;-74
2022/11/03 05:56:57;;;;;;;9.70;2.25;;;8.90;99.90;;;;;;5093490;28;20030;-74
2022/11/03 05:59:26;;;;;;;10.20;2.17;;;8.90;99.90;;;;;;5095402;28;20028;-73
2022/11/03 06:01:58;;;;;;;8.18;2.33;;;8.90;99.90;;;;;;5086554;28;20514;-74
2022/11/03 06:04:31;;;;;;;10.55;2.85;;;8.90;99.90;;;;;;5090752;28;20035;-74
2022/11/03 06:07:02;;;;;;;6.45;1.95;;;8.90;99.90;;;;;;5093654;28;20039;-75
2022/11/03 06:09:30;;;;;;;12.82;2.65;;;8.90;99.90;;;;;;5076174;28;20039;-73
2022/11/03 06:11:59;;;;;;;12.82;2.60;;;8.90;99.90;;;;;;5098915;28;20672;-74
2022/11/03 06:14:28;;;;;;;9.52;2.28;;;9.00;99.90;;;;;;5106828;28;20116;-73
2022/11/03 06:17:01;;;;;;;11.77;2.30;;;9.00;99.90;;;;;;5074396;28;20448;-73
2022/11/03 06:19:43;;;;;;;8.70;2.72;;;9.00;99.90;;;;;;5093868;28;20023;-75
2022/11/03 06:22:30;;;;;;;7.43;2.67;;;9.00;99.90;;;;;;5080338;28;20107;-74
2022/11/03 06:25:31;;;;;;;12.95;3.22;;;9.00;99.90;;;;;;5102456;28;20058;-73
2022/11/03 06:28:03;;;;;;;7.93;2.10;;;9.00;99.90;;;;;;5098569;27;20070;-75
2022/11/03 06:30:35;;;;;;;11.30;2.20;;;9.00;99.90;;;;;;5092382;28;20034;-76
2022/11/03 06:33:12;;;;;;;8.98;2.63;;;9.00;99.90;;;;;;5098923;28;20049;-73
2022/11/03 06:35:38;;;;;;;8.10;1.90;;;9.00;99.90;;;;;;5087288;28;20066;-76
2022/11/03 06:38:14;;;;;;;12.38;2.78;;;9.00;99.90;;;;;;5101279;28;20815;-73
2022/11/03 06:40:40;;;;;;;13.18;2.50;;;9.10;99.90;;;;;;5096374;28;20024;-75
2022/11/03 06:43:39;;;;;;;7.88;2.25;;;9.10;99.90;;;;;;5100023;28;20035;-74
2022/11/03 06:46:32;;;;;;;8.80;1.90;;;9.10;99.90;;;;;;5077321;28;20044;-74
2022/11/03 06:49:00;;;;;;;8.55;2.08;;;9.10;99.90;;;;;;5090973;28;20042;-75
2022/11/03 06:51:29;;;;;;;13.45;2.28;;;9.10;99.90;;;;;;5100513;28;20028;-76
2022/11/03 06:54:00;;;;;;;12.50;2.83;;;9.10;99.90;;;;;;5088719;28;20039;-75
2022/11/03 06:56:30;;;;;;;6.93;2.50;;;9.20;99.90;;;;;;5071972;28;20024;-74
2022/11/03 06:58:57;;;;;;;10.38;2.17;;;9.20;99.90;;;;;;5096840;27;20036;-75
2022/11/03 07:01:31;;;;;;;9.70;2.10;;;9.20;99.90;;;;;;5095359;27;20394;-74
2022/11/03 07:04:18;;;;;;;7.72;2.08;;;9.20;99.90;;;;;;5102725;27;20032;-74
2022/11/03 07:06:45;;;;;;;5.35;2.08;;;9.20;99.90;;;;;;5089477;28;20051;-74
2022/11/03 07:09:19;;;;;;;10.52;2.70;;;9.20;99.90;;;;;;5098439;27;20042;-75
2022/11/03 07:11:48;;;;;;;12.32;2.70;;;9.30;99.90;;;;;;5100842;28;20129;-76
2022/11/03 07:14:23;;;;;;;8.52;2.20;;;9.30;99.90;;;;;;5094810;27;20495;-74
2022/11/03 07:17:01;;;;;;;9.00;2.58;;;9.30;99.90;;;;;;5083407;28;20103;-75
2022/11/03 07:19:39;;;;;;;8.70;2.20;;;9.30;99.90;;;;;;5093587;28;20028;-73
2022/11/03 07:22:21;;;;;;;9.40;2.40;;;9.30;99.90;;;;;;5091870;28;20038;-74
2022/11/03 07:24:51;;;;;;;8.05;2.47;;;9.40;99.90;;;;;;5091739;28;20020;-74
2022/11/03 07:27:31;;;;;;;11.63;2.58;;;9.40;99.90;;;;;;5085812;28;20107;-74
2022/11/03 07:30:18;;;;;;;13.85;2.63;;;9.30;99.90;;;;;;5088770;28;20036;-74
2022/11/03 07:32:45;;;;;;;9.05;2.60;;;9.40;99.90;;;;;;5104168;27;20035;-75
2022/11/03 07:35:17;;;;;;;12.02;2.30;;;9.40;99.90;;;;;;5073823;28;20023;-75
2022/11/03 07:37:48;;;;;;;7.32;2.22;;;9.40;99.90;;;;;;5087676;27;20396;-75
2022/11/03 07:40:17;;;;;;;;;;;9.40;99.90;;;;;;5108026;27;20024;-73
2022/11/03 07:42:42;;;;;;;9.25;2.67;;;9.40;99.90;;;;;;5090137;28;20439;-74
2022/11/03 07:45:33;;;;;;;7.45;2.35;;;9.40;99.90;;;;;;5102496;28;20129;-74
2022/11/03 07:48:03;;;;;;;12.13;3.20;;;9.50;99.90;;;;;;5097473;27;20024;-73
2022/11/03 07:50:29;;;;;;;8.87;2.40;;;9.40;99.90;;;;;;5101508;27;20445;-74
2022/11/03 07:52:55;;;;;;;14.27;3.60;;;9.40;99.90;;;;;;5108053;27;20338;-74
2022/11/03 07:55:20;;;;;;;11.73;3.60;;;9.50;99.90;;;;;;5104795;27;20107;-74
2022/11/03 07:57:47;;;;;;;7.53;2.35;;;9.50;99.90;;;;;;5080850;28;20023;-73
2022/11/03 08:00:20;;;;;;;9.75;2.53;;;9.50;99.90;;;;;;5109053;27;20024;-74
2022/11/03 08:02:56;;;;;;;10.15;2.28;;;9.60;99.90;;;;;;5089709;28;20027;-75
2022/11/03 08:05:22;;;;;;;8.98;2.40;;;9.60;99.90;;;;;;5112126;28;20031;-74
2022/11/03 08:07:48;;;;;;;14.00;2.83;;;9.70;99.90;;;;;;5092840;28;20020;-74
2022/11/03 08:10:13;;;;;;;12.18;3.15;;;9.70;99.90;;;;;;5100764;27;20035;-74
2022/11/03 08:12:39;;;;;;;9.45;2.40;;;9.70;99.90;;;;;;5100980;27;20034;-74
2022/11/03 08:15:06;;;;;;;7.43;2.40;;;9.70;99.90;;;;;;5099432;27;20390;-74
2022/11/03 08:17:32;;;;;;;7.68;2.00;;;9.70;99.90;;;;;;5105200;27;20095;-74
2022/11/03 08:19:59;;;;;;;7.75;2.50;;;9.80;99.90;;;;;;5105003;27;20107;-74
2022/11/03 08:22:25;;;;;;;6.63;1.95;;;9.80;99.90;;;;;;5109298;27;20488;-74
2022/11/03 08:24:51;;;;;;;9.27;2.30;;;9.80;99.90;;;;;;5090773;28;20190;-74
2022/11/03 08:27:18;;;;;;;7.22;2.05;;;9.90;99.90;;;;;;5086753;28;20551;-74
2022/11/03 08:29:44;;;;;;;8.25;2.58;;;9.90;99.90;;;;;;5109393;27;20081;-77
2022/11/03 08:32:10;;;;;;;8.68;2.60;;;10.00;99.90;;;;;;5110728;27;20043;-74
2022/11/03 08:34:36;;;;;;;9.05;1.90;;;10.00;99.90;;;;;;5072136;28;20649;-74
2022/11/03 08:37:02;;;;;;;7.60;2.20;;;10.00;99.90;;;;;;5086112;28;20602;-73
2022/11/03 08:39:30;;;;;;;5.85;1.50;;;10.10;99.90;;;;;;5101755;27;20115;-74
2022/11/03 08:41:55;;;;;;;7.63;2.13;;;10.10;99.90;;;;;;5106157;28;20026;-74
2022/11/03 08:44:21;;;;;;;7.72;2.40;;;10.20;99.90;;;;;;5090086;28;20531;-73
2022/11/03 08:46:47;;;;;;;9.20;2.33;;;10.20;99.90;;;;;;5088555;28;20066;-74
2022/11/03 08:49:13;;;;;;;13.00;2.53;;;10.20;99.90;;;;;;5090138;28;20115;-74
2022/11/03 08:51:38;;;;;;;11.05;2.53;;;10.30;99.90;;;;;;5081568;28;20029;-74
2022/11/03 08:54:04;;;;;;;11.65;2.85;;;10.30;99.90;;;;;;5067538;28;20119;-74
2022/11/03 08:56:30;;;;;;;8.98;2.50;;;10.40;99.90;;;;;;5088387;28;20031;-74
2022/11/03 08:58:55;;;;;;;12.02;2.38;;;10.40;99.90;;;;;;5095418;28;20065;-74
2022/11/03 09:01:21;;;;;;;8.77;2.65;;;10.40;99.90;;;;;;5087561;28;20041;-74
2022/11/03 09:03:47;;;;;;;9.10;2.33;;;10.40;99.90;;;;;;5096895;28;20028;-76
2022/11/03 09:06:12;;;;;;;8.68;2.63;;;10.50;99.90;;;;;;5078012;28;20031;-74
2022/11/03 09:08:38;;;;;;;12.63;2.97;;;10.50;99.90;;;;;;5087003;28;20024;-74
2022/11/03 09:11:04;;;;;;;14.50;3.47;;;10.60;99.90;;;;;;5101309;28;20047;-74
2022/11/03 09:13:30;;;;;;;12.43;2.30;;;10.60;99.90;;;;;;5100259;28;20024;-74
2022/11/03 09:15:55;;;;;;;9.65;2.50;;;10.70;99.90;;;;;;5072851;28;20138;-74
2022/11/03 09:18:21;;;;;;;12.18;2.70;;;10.70;99.90;;;;;;5077151;28;20098;-74
2022/11/03 09:20:47;;;;;;;7.65;2.00;;;10.80;99.90;;;;;;5103806;28;20043;-74
2022/11/03 09:23:12;;;;;;;10.15;2.60;;;10.80;99.90;;;;;;5105202;28;20036;-74
2022/11/03 09:25:38;;;;;;;7.20;2.13;;;10.90;99.90;;;;;;5071029;28;20031;-74
2022/11/03 09:28:04;;;;;;;7.25;1.80;;;10.90;99.90;;;;;;5072402;28;20114;-74
2022/11/03 09:30:30;;;;;;;8.20;2.60;;;10.90;99.90;;;;;;5086417;28;20032;-74
2022/11/03 09:32:55;;;;;;;9.27;2.08;;;10.90;99.90;;;;;;5065165;28;20020;-74
2022/11/03 09:35:21;;;;;;;8.48;2.17;;;10.90;99.90;;;;;;5100030;28;20535;-74
2022/11/03 09:37:47;;;;;;;12.65;3.08;;;10.90;99.90;;;;;;5096153;28;20534;-74
2022/11/03 09:40:14;;;;;;;8.18;2.33;;;10.90;99.90;;;;;;5096044;28;20027;-74
2022/11/03 09:42:41;;;;;;;9.35;2.03;;;11.00;99.90;;;;;;5098786;28;20020;-74
2022/11/03 09:45:08;;;;;;;10.90;2.85;;;11.00;99.90;;;;;;5102491;27;20031;-75
2022/11/03 09:47:40;;;;;;;13.90;2.63;;;11.10;99.90;;;;;;5101032;28;20028;-74
2022/11/03 09:50:15;;;;;;;10.20;2.53;;;11.20;99.90;;;;;;5103569;28;20034;-74
2022/11/03 09:52:41;;;;;;;9.95;2.75;;;11.30;99.90;;;;;;5096850;28;20130;-75
2022/11/03 09:55:20;;;;;;;15.27;2.47;;;11.30;99.90;;;;;;5096628;28;20043;-74
2022/11/03 09:57:46;;;;;;;10.73;3.65;;;11.40;99.90;;;;;;5087774;28;20019;-74
2022/11/03 10:00:21;;;;;;;11.18;4.53;;;11.50;99.90;;;;;;5091725;28;20108;-74
2022/11/03 10:02:48;;;;;;;12.77;2.70;;;11.50;99.90;;;;;;5093462;28;20427;-75
2022/11/03 10:05:23;;;;;;;11.52;2.72;;;11.50;99.90;;;;;;5086348;28;20047;-74
2022/11/03 10:07:51;;;;;;;9.43;2.70;;;11.60;99.90;;;;;;5107362;28;20026;-74
2022/11/03 10:10:20;;;;;;;9.52;2.13;;;11.60;99.90;;;;;;5082259;28;20503;-74
2022/11/03 10:12:48;;;;;;;7.82;2.30;;;11.70;99.90;;;;;;5104272;28;20399;-75
2022/11/03 10:15:20;;;;;;;9.85;2.42;;;11.70;99.90;;;;;;5092674;28;20456;-75
2022/11/03 10:17:46;;;;;;;6.30;1.90;;;11.70;99.90;;;;;;5110685;28;20099;-75
2022/11/03 10:20:14;;;;;;;10.27;2.30;;;11.70;99.90;;;;;;5092828;28;20024;-74
2022/11/03 10:22:42;;;;;;;7.63;2.15;;;11.80;99.90;;;;;;5089216;28;20024;-75
2022/11/03 10:25:27;;;;;;;8.13;2.63;;;11.80;99.90;;;;;;5093310;28;20092;-75
2022/11/03 10:28:17;;;;;;;48.63;23.35;;;11.90;99.90;;;;;;5088620;28;20035;-75
2022/11/03 10:30:55;;;;;;;10.38;3.33;;;12.00;99.90;;;;;;5100284;27;20024;-73
2022/11/03 10:33:28;;;;;;;8.43;2.75;;;12.10;99.90;;;;;;5105744;28;20023;-74
2022/11/03 10:35:59;;;;;;;13.85;2.88;;;12.10;99.90;;;;;;5108025;28;20023;-74
2022/11/03 10:38:49;;;;;;;8.27;2.42;;;12.10;99.90;;;;;;5090371;28;20020;-73
2022/11/03 10:41:16;;;;;;;7.93;2.55;;;12.10;99.90;;;;;;5087579;28;20031;-74
2022/11/03 10:44:10;;;;;;;13.95;2.75;;;12.10;99.90;;;;;;5087351;28;20127;-74
2022/11/03 10:46:37;;;;;;;6.40;2.55;;;12.20;99.90;;;;;;5104949;28;20024;-74
2022/11/03 10:49:09;;;;;;;7.20;2.20;;;12.20;99.90;;;;;;5086108;28;20032;-73
2022/11/03 10:51:35;;;;;;;11.50;2.50;;;12.30;99.90;;;;;;5078900;28;20045;-73
2022/11/03 10:54:03;;;;;;;9.25;2.50;;;12.30;99.90;;;;;;5105019;28;20103;-75
2022/11/03 10:56:30;;;;;;;7.85;2.13;;;12.40;99.90;;;;;;5077822;28;20027;-74
2022/11/03 10:58:57;;;;;;;7.25;2.25;;;12.50;99.90;;;;;;5099555;28;20403;-73
2022/11/03 11:01:23;;;;;;;7.18;2.65;;;12.50;99.90;;;;;;5101955;27;20077;-73
2022/11/03 11:03:49;;;;;;;7.97;2.97;;;12.70;99.90;;;;;;5103120;27;20040;-76
2022/11/03 11:06:24;;;;;;;15.73;2.60;;;12.70;99.90;;;;;;5081915;28;20039;-74
2022/11/03 11:08:56;;;;;;;6.93;2.30;;;12.80;99.90;;;;;;5088681;28;20023;-73
2022/11/03 11:11:22;;;;;;;11.52;2.53;;;12.90;99.90;;;;;;5096302;28;20024;-75
2022/11/03 11:14:26;;;;;;;10.65;2.70;;;12.90;99.90;;;;;;5086055;28;20495;-74
2022/11/03 11:16:58;;;;;;;9.45;2.25;;;12.90;99.90;;;;;;5063937;28;20072;-76
2022/11/03 11:19:24;;;;;;;;;;;12.90;99.90;;;;;;5079280;28;20024;-74
2022/11/03 11:21:53;;;;;;;10.88;2.70;;;12.90;99.90;;;;;;5105177;28;20295;-74
2022/11/03 11:24:43;;;;;;;10.07;2.28;;;13.00;99.90;;;;;;5103577;27;20038;-73
2022/11/03 11:27:35;;;;;;;9.15;2.58;;;13.10;99.90;;;;;;5085898;28;20137;-74
2022/11/03 11:30:25;;;;;;;8.02;2.33;;;13.20;99.90;;;;;;5091646;28;20161;-74
2022/11/03 11:33:00;;;;;;;8.93;2.55;;;13.20;99.90;;;;;;5022062;28;20030;-74
2022/11/03 11:35:25;;;;;;;8.95;2.92;;;13.20;99.90;;;;;;5060829;28;20365;-74
2022/11/03 11:37:52;;;;;;;11.43;2.35;;;13.20;99.90;;;;;;5081139;28;20020;-74
2022/11/03 11:40:24;;;;;;;8.18;2.85;;;13.20;99.90;;;;;;5103424;27;20334;-74
2022/11/03 11:43:19;;;;;;;6.70;2.10;;;13.20;99.90;;;;;;5102557;28;20024;-73
2022/11/03 11:46:22;;;;;;;7.78;2.03;;;13.20;99.90;;;;;;5088342;28;20082;-74
2022/11/03 11:49:03;;;;;;;12.13;2.58;;;13.20;99.90;;;;;;5087021;28;20027;-73
2022/11/03 11:51:35;;;;;;;5.03;2.25;;;13.20;99.90;;;;;;5088394;28;20110;-73
2022/11/03 11:54:12;;;;;;;8.70;2.20;;;13.20;99.90;;;;;;5086157;28;20092;-74
2022/11/03 11:56:46;;;;;;;8.52;2.63;;;13.10;99.90;;;;;;5091566;28;20390;-74
2022/11/03 11:59:21;;;;;;;10.95;2.78;;;13.20;99.90;;;;;;5100387;28;20551;-73
2022/11/03 12:01:50;;;;;;;5.97;2.10;;;13.30;99.90;;;;;;5093078;28;20059;-74
2022/11/03 12:04:30;;;;;;;10.13;2.40;;;13.30;99.90;;;;;;5108130;28;20046;-74
2022/11/03 12:06:56;;;;;;;7.30;2.45;;;13.30;99.90;;;;;;5093785;28;20020;-74
2022/11/03 12:09:26;;;;;;;9.80;3.00;;;13.40;99.90;;;;;;5087680;28;20031;-74
2022/11/03 12:12:00;;;;;;;8.60;2.67;;;13.40;99.90;;;;;;5101233;28;20200;-74
2022/11/03 12:14:29;;;;;;;14.88;3.05;;;13.40;99.90;;;;;;5093935;28;20038;-74
2022/11/03 12:16:56;;;;;;;11.57;3.00;;;13.40;99.90;;;;;;5078164;28;20071;-74
2022/11/03 12:19:35;;;;;;;7.63;2.88;;;13.40;99.90;;;;;;5104487;28;20030;-75
2022/11/03 12:22:28;;;;;;;10.18;2.60;;;13.40;99.90;;;;;;5107513;28;20127;-74
2022/11/03 12:24:54;;;;;;;7.28;2.38;;;13.40;99.90;;;;;;5093426;28;20109;-73
2022/11/03 12:27:23;;;;;;;6.63;2.20;;;13.40;99.90;;;;;;5093620;28;20045;-73
2022/11/03 12:30:16;;;;;;;9.05;2.70;;;13.40;99.90;;;;;;5091684;28;20019;-74
2022/11/03 12:32:42;;;;;;;9.60;2.60;;;13.50;99.90;;;;;;5087756;28;20019;-74
2022/11/03 12:35:08;;;;;;;8.45;2.60;;;13.50;99.90;;;;;;5108855;28;20026;-73
2022/11/03 12:37:35;;;;;;;6.78;2.28;;;13.60;99.90;;;;;;5074390;28;20624;-74
2022/11/03 12:40:00;;;;;;;10.15;2.80;;;13.70;99.90;;;;;;5097462;28;20035;-73
2022/11/03 12:42:26;;;;;;;7.35;2.28;;;13.70;99.90;;;;;;5091288;28;20036;-73
2022/11/03 12:44:52;;;;;;;6.63;2.25;;;13.70;99.90;;;;;;5081462;28;20023;-73
2022/11/03 12:47:18;;;;;;;7.43;2.35;;;13.70;99.90;;;;;;5079789;28;20035;-73
2022/11/03 12:49:44;;;;;;;8.80;3.05;;;13.70;99.90;;;;;;5088430;28;20496;-74
2022/11/03 12:52:10;;;;;;;8.93;2.60;;;13.70;99.90;;;;;;5093012;28;20066;-73
2022/11/03 12:54:35;;;;;;;8.18;2.10;;;13.70;99.90;;;;;;5099848;28;20043;-74
2022/11/03 12:57:01;;;;;;;6.00;1.95;;;13.60;99.90;;;;;;5098770;28;20077;-74
2022/11/03 12:59:27;;;;;;;6.30;2.10;;;13.70;99.90;;;;;;5102288;28;20404;-74
2022/11/03 13:01:53;;;;;;;7.40;2.55;;;13.70;99.90;;;;;;5098770;28;20050;-74
2022/11/03 13:04:18;;;;;;;7.22;1.90;;;13.60;99.90;;;;;;5087550;28;20051;-74
2022/11/03 13:06:44;;;;;;;10.48;2.70;;;13.60;99.90;;;;;;5067976;28;20567;-74
2022/11/03 13:09:10;;;;;;;6.00;1.88;;;13.60;99.90;;;;;;5097887;28;20106;-74
2022/11/03 13:14:20;;;;;;;9.23;2.42;;;13.50;99.90;;;;;;5106120;28;20026;-74
2022/11/03 13:16:46;;;;;;;7.10;1.85;;;13.50;99.90;;;;;;5086851;28;20059;-74
2022/11/03 13:19:12;;;;;;;8.43;2.00;;;13.40;99.90;;;;;;5093929;28;20020;-74
2022/11/03 13:21:37;;;;;;;8.50;2.55;;;13.50;99.90;;;;;;5104166;28;20490;-74
2022/11/03 13:24:03;;;;;;;6.22;2.15;;;13.40;99.90;;;;;;5089174;28;20118;-76
2022/11/03 13:26:29;;;;;;;10.07;2.50;;;13.40;99.90;;;;;;5094819;28;20154;-74
2022/11/03 13:28:55;;;;;;;5.22;1.90;;;13.40;99.90;;;;;;5061317;28;20028;-75
2022/11/03 13:31:21;;;;;;;10.38;2.40;;;13.40;99.90;;;;;;5100822;28;20031;-73